createdAt,value
2023-01-04T00:00:07.290Z,24.75
2023-01-04T00:01:58.185Z,22.38
2023-01-04T00:03:32.325Z,25.52
2023-01-04T00:05:06.045Z,25.48
2023-01-04T00:06:39.331Z,24.95
2023-01-04T00:08:12.240Z,25.83
2023-01-04T00:09:45.176Z,24.83
2023-01-04T00:11:20.953Z,25.85
2023-01-04T00:12:53.858Z,26.00
2023-01-04T00:14:26.833Z,26.65
2023-01-04T00:16:07.176Z,23.80
2023-01-04T00:17:40.623Z,27.17
2023-01-04T00:19:13.915Z,29.67
2023-01-04T00:20:46.765Z,27.50
2023-01-04T00:22:27.017Z,27.63
2023-01-04T00:24:01.498Z,29.08
2023-01-04T00:25:34.349Z,29.83
2023-01-04T00:27:07.312Z,35.10
2023-01-04T00:28:39.595Z,31.10
2023-01-04T00:30:13.700Z,32.95
2023-01-04T00:31:46.715Z,28.60
2023-01-04T00:33:19.806Z,26.92
2023-01-04T00:34:52.688Z,30.27
2023-01-04T00:36:26.313Z,27.15
2023-01-04T00:38:04.567Z,28.85
2023-01-04T00:39:37.553Z,33.13
2023-01-04T00:41:34.460Z,26.52
2023-01-04T00:43:04.829Z,27.45
2023-01-04T00:44:37.797Z,31.15
2023-01-04T00:46:52.933Z,25.75
2023-01-04T00:49:58.850Z,25.50
2023-01-04T00:51:31.938Z,27.92
2023-01-04T00:53:06.241Z,30.30
2023-01-04T00:54:39.201Z,28.52
2023-01-04T00:56:15.308Z,30.70
2023-01-04T00:57:48.181Z,28.95
2023-01-04T00:59:22.447Z,30.00
2023-01-04T01:00:55.556Z,31.30
2023-01-04T01:02:28.812Z,31.73
2023-01-04T01:05:37.300Z,31.95
2023-01-04T01:07:22.598Z,31.55
2023-01-04T01:08:58.627Z,32.00
2023-01-04T01:10:55.905Z,30.15
2023-01-04T01:12:39.719Z,31.70
2023-01-04T01:15:00.703Z,34.22
2023-01-04T01:19:10.001Z,36.97
2023-01-04T01:20:44.380Z,38.60
2023-01-04T01:22:17.485Z,39.95
2023-01-04T01:23:51.649Z,38.58
2023-01-04T01:25:25.919Z,31.65
2023-01-04T01:28:46.641Z,30.02
2023-01-04T01:30:19.723Z,28.77
2023-01-04T01:31:52.980Z,32.05
2023-01-04T01:33:26.080Z,27.45
2023-01-04T01:34:59.014Z,32.15
2023-01-04T01:36:31.954Z,32.33
2023-01-04T01:38:05.169Z,33.10
2023-01-04T01:39:38.075Z,28.90
2023-01-04T01:41:19.751Z,28.15
2023-01-04T01:42:52.693Z,32.10
2023-01-04T01:45:00.561Z,28.10
2023-01-04T01:46:48.313Z,28.13
2023-01-04T01:48:27.100Z,30.10
2023-01-04T01:50:00.156Z,28.58
2023-01-04T01:51:34.901Z,28.33
2023-01-04T01:53:09.985Z,27.98
2023-01-04T01:54:46.332Z,28.63
2023-01-04T01:56:20.940Z,24.50
2023-01-04T01:57:55.638Z,28.30
2023-01-04T01:59:29.740Z,27.30
2023-01-04T02:01:03.672Z,30.77
2023-01-04T02:02:37.063Z,26.27
2023-01-04T02:04:11.208Z,29.45
2023-01-04T02:05:47.916Z,31.75
2023-01-04T02:07:29.221Z,27.42
2023-01-04T02:09:03.917Z,25.38
2023-01-04T02:10:36.263Z,29.38
2023-01-04T02:12:13.800Z,24.35
2023-01-04T02:14:04.963Z,28.17
2023-01-04T02:15:49.786Z,26.50
2023-01-04T02:20:22.229Z,27.05
2023-01-04T02:22:16.833Z,26.38
2023-01-04T02:24:19.114Z,24.65
2023-01-04T02:26:26.050Z,28.15
2023-01-04T02:30:44.973Z,29.88
2023-01-04T02:32:28.380Z,27.17
2023-01-04T02:34:06.599Z,28.38
2023-01-04T02:35:46.051Z,26.75
2023-01-04T02:37:28.081Z,28.58
2023-01-04T02:39:07.809Z,28.48
2023-01-04T02:40:50.495Z,28.98
2023-01-04T02:42:50.399Z,28.90
2023-01-04T02:44:47.095Z,28.88
2023-01-04T02:46:26.374Z,28.15
2023-01-04T02:48:23.357Z,30.60
2023-01-04T02:50:13.830Z,31.38
2023-01-04T02:51:46.834Z,27.63
2023-01-04T02:53:23.690Z,32.55
2023-01-04T02:54:58.770Z,32.75
2023-01-04T02:56:46.138Z,32.42
2023-01-04T02:58:33.773Z,29.65
2023-01-04T03:00:25.953Z,29.17
2023-01-04T03:02:27.988Z,30.17
2023-01-04T03:04:33.873Z,31.60
2023-01-04T03:06:25.978Z,31.52
2023-01-04T03:08:09.490Z,34.88
2023-01-04T03:09:47.792Z,32.55
2023-01-04T03:11:34.908Z,29.23
2023-01-04T03:13:11.823Z,29.70
2023-01-04T03:14:50.772Z,29.83
2023-01-04T03:16:26.403Z,27.25
2023-01-04T03:18:03.230Z,27.73
2023-01-04T03:19:54.829Z,30.75
2023-01-04T03:21:29.764Z,28.58
2023-01-04T03:23:23.769Z,29.60
2023-01-04T03:25:15.467Z,30.85
2023-01-04T03:27:09.929Z,33.42
2023-01-04T03:29:02.381Z,28.95
2023-01-04T03:30:58.450Z,29.90
2023-01-04T03:32:52.147Z,30.92
2023-01-04T03:34:43.085Z,31.45
2023-01-04T03:36:25.948Z,34.10
2023-01-04T03:38:23.703Z,34.00
2023-01-04T03:40:35.956Z,33.88
2023-01-04T03:42:33.169Z,27.42
2023-01-04T03:44:35.147Z,30.55
2023-01-04T03:46:32.013Z,25.27
2023-01-04T03:48:31.529Z,24.50
2023-01-04T03:50:10.132Z,26.25
2023-01-04T03:51:46.652Z,26.35
2023-01-04T03:53:19.751Z,25.38
2023-01-04T03:54:53.897Z,25.88
2023-01-04T03:56:29.287Z,24.05
2023-01-04T03:58:02.585Z,26.30
2023-01-04T03:59:39.528Z,27.05
2023-01-04T04:01:14.167Z,25.98
2023-01-04T04:02:48.807Z,25.10
2023-01-04T04:04:39.323Z,25.00
2023-01-04T04:06:29.670Z,26.67
2023-01-04T04:08:25.170Z,24.83
2023-01-04T04:09:58.144Z,24.92
2023-01-04T04:11:30.296Z,24.13
2023-01-04T04:13:03.314Z,23.20
2023-01-04T04:14:36.293Z,25.90
2023-01-04T04:16:09.418Z,25.63
2023-01-04T04:17:42.583Z,24.35
2023-01-04T04:19:15.644Z,22.10
2023-01-04T04:20:48.589Z,25.38
2023-01-04T04:22:21.520Z,25.15
2023-01-04T04:23:57.267Z,23.90
2023-01-04T04:25:30.161Z,25.70
2023-01-04T04:27:03.115Z,25.95
2023-01-04T04:28:49.304Z,24.25
2023-01-04T04:30:22.347Z,24.95
2023-01-04T04:31:55.407Z,24.65
2023-01-04T04:33:27.429Z,23.58
2023-01-04T04:35:00.331Z,25.45
2023-01-04T04:36:33.190Z,23.25
2023-01-04T04:38:06.180Z,22.75
2023-01-04T04:39:40.463Z,25.67
2023-01-04T04:41:32.490Z,23.77
2023-01-04T04:43:08.478Z,22.85
2023-01-04T04:44:41.397Z,23.25
2023-01-04T04:46:13.340Z,25.58
2023-01-04T04:47:46.268Z,23.20
2023-01-04T04:49:19.511Z,27.50
2023-01-04T04:50:51.477Z,26.10
2023-01-04T04:52:24.388Z,24.77
2023-01-04T04:53:56.397Z,23.92
2023-01-04T04:55:30.643Z,24.83
2023-01-04T04:57:03.678Z,24.00
2023-01-04T04:58:37.092Z,23.38
2023-01-04T05:01:43.679Z,25.42
2023-01-04T05:03:16.781Z,25.73
2023-01-04T05:04:49.730Z,23.10
2023-01-04T05:06:22.727Z,23.05
2023-01-04T05:07:55.755Z,23.63
2023-01-04T05:09:28.631Z,20.92
2023-01-04T05:11:05.150Z,23.80
2023-01-04T05:12:57.992Z,25.42
2023-01-04T05:14:31.336Z,23.42
2023-01-04T05:16:06.352Z,34.30
2023-01-04T05:17:39.420Z,24.33
2023-01-04T05:19:12.445Z,23.88
2023-01-04T05:20:45.733Z,23.98
2023-01-04T05:22:18.712Z,24.95
2023-01-04T05:23:50.614Z,23.25
2023-01-04T05:25:23.568Z,23.42
2023-01-04T05:26:57.797Z,21.90
2023-01-04T05:28:30.809Z,25.05
2023-01-04T05:30:21.536Z,21.25
2023-01-04T05:31:53.586Z,19.15
2023-01-04T05:33:28.330Z,21.90
2023-01-04T05:35:00.356Z,23.95
2023-01-04T05:36:33.260Z,22.55
2023-01-04T05:38:06.307Z,23.92
2023-01-04T05:39:38.340Z,24.33
2023-01-04T05:41:25.266Z,22.40
2023-01-04T05:42:59.517Z,20.48
2023-01-04T05:44:31.414Z,22.73
2023-01-04T05:46:04.437Z,22.38
2023-01-04T05:47:37.689Z,25.50
2023-01-04T05:49:09.841Z,23.00
2023-01-04T05:50:43.577Z,19.33
2023-01-04T05:52:15.669Z,22.70
2023-01-04T05:53:48.847Z,23.95
2023-01-04T05:55:22.075Z,22.55
2023-01-04T05:56:55.177Z,25.75
2023-01-04T05:58:29.800Z,21.42
2023-01-04T06:00:03.032Z,21.67
2023-01-04T06:01:36.094Z,23.83
2023-01-04T06:03:09.412Z,23.85
2023-01-04T06:06:14.202Z,24.67
2023-01-04T06:07:47.234Z,23.65
2023-01-04T06:09:19.178Z,22.73
2023-01-04T06:10:55.341Z,23.33
2023-01-04T06:12:28.415Z,24.95
2023-01-04T06:14:02.747Z,22.85
2023-01-04T06:15:41.007Z,27.42
2023-01-04T06:17:16.158Z,23.17
2023-01-04T06:18:49.125Z,24.05
2023-01-04T06:20:22.050Z,23.52
2023-01-04T06:21:54.409Z,26.52
2023-01-04T06:23:27.352Z,23.48
2023-01-04T06:25:00.974Z,23.42
2023-01-04T06:26:32.999Z,23.00
2023-01-04T06:28:06.011Z,25.23
2023-01-04T06:29:40.365Z,21.27
2023-01-04T06:31:13.483Z,21.73
2023-01-04T06:32:46.629Z,20.77
2023-01-04T06:34:20.399Z,23.58
2023-01-04T06:35:55.956Z,23.02
2023-01-04T06:37:29.534Z,24.52
2023-01-04T06:39:02.460Z,23.02
2023-01-04T06:40:35.528Z,23.08
2023-01-04T06:42:29.499Z,19.48
2023-01-04T06:44:03.104Z,23.38
2023-01-04T06:45:37.467Z,23.77
2023-01-04T06:47:10.467Z,19.73
2023-01-04T06:48:43.582Z,20.88
2023-01-04T06:50:16.692Z,22.17
2023-01-04T06:51:49.686Z,23.83
2023-01-04T06:53:22.655Z,24.13
2023-01-04T06:54:55.611Z,25.70
2023-01-04T06:56:28.730Z,20.63
2023-01-04T06:58:01.882Z,25.83
2023-01-04T06:59:34.811Z,22.17
2023-01-04T07:01:09.409Z,23.90
2023-01-04T07:03:14.114Z,23.27
2023-01-04T07:04:35.632Z,23.75
2023-01-04T07:06:10.320Z,24.83
2023-01-04T07:07:43.276Z,20.88
2023-01-04T07:09:16.222Z,23.90
2023-01-04T07:10:49.275Z,23.65
2023-01-04T07:12:22.295Z,28.58
2023-01-04T07:13:55.295Z,20.35
2023-01-04T07:15:39.197Z,24.77
2023-01-04T07:17:14.673Z,22.38
2023-01-04T07:18:47.705Z,22.52
2023-01-04T07:20:20.726Z,23.75
2023-01-04T07:21:53.949Z,21.98
2023-01-04T07:24:59.784Z,21.50
2023-01-04T07:26:32.718Z,26.08
2023-01-04T07:28:05.869Z,22.25
2023-01-04T07:29:39.373Z,23.42
2023-01-04T07:32:46.514Z,23.00
2023-01-04T07:34:21.060Z,22.27
2023-01-04T07:35:54.021Z,26.33
2023-01-04T07:37:27.032Z,23.33
2023-01-04T07:39:00.971Z,23.20
2023-01-04T07:40:33.911Z,21.67
2023-01-04T07:42:07.003Z,22.75
2023-01-04T07:43:39.931Z,23.75
2023-01-04T07:45:13.030Z,22.52
2023-01-04T07:46:46.246Z,19.83
2023-01-04T07:48:20.619Z,19.85
2023-01-04T07:49:53.582Z,25.15
2023-01-04T07:51:26.625Z,23.42
2023-01-04T07:53:02.197Z,21.58
2023-01-04T07:54:35.146Z,21.17
2023-01-04T07:56:11.373Z,23.17
2023-01-04T07:57:48.274Z,22.13
2023-01-04T07:59:23.105Z,23.45
2023-01-04T08:00:57.955Z,20.52
2023-01-04T08:02:30.971Z,23.60
2023-01-04T08:04:06.058Z,21.30
2023-01-04T08:05:39.194Z,22.45
2023-01-04T08:07:12.113Z,32.58
2023-01-04T08:08:45.050Z,21.95
2023-01-04T08:10:18.114Z,26.05
2023-01-04T08:11:51.088Z,23.90
2023-01-04T08:13:24.056Z,23.25
2023-01-04T08:14:56.965Z,18.88
2023-01-04T08:16:32.429Z,18.50
2023-01-04T08:18:06.221Z,21.23
2023-01-04T08:19:40.499Z,20.90
2023-01-04T08:21:13.574Z,21.98
2023-01-04T08:22:46.456Z,18.73
2023-01-04T08:24:21.027Z,18.33
2023-01-04T08:25:53.917Z,19.67
2023-01-04T08:27:26.874Z,18.90
2023-01-04T08:29:00.285Z,21.30
2023-01-04T08:32:06.681Z,18.95
2023-01-04T08:33:40.661Z,17.80
2023-01-04T08:35:14.924Z,18.30
2023-01-04T08:36:49.717Z,18.85
2023-01-04T08:38:58.256Z,19.27
2023-01-04T08:40:15.685Z,19.38
2023-01-04T08:42:02.180Z,21.13
2023-01-04T08:43:40.756Z,17.95
2023-01-04T08:45:13.723Z,18.40
2023-01-04T08:46:47.069Z,19.80
2023-01-04T08:50:06.361Z,20.70
2023-01-04T08:51:44.859Z,19.55
2023-01-04T08:53:17.902Z,16.25
2023-01-04T08:54:54.238Z,18.00
2023-01-04T08:56:27.213Z,19.17
2023-01-04T08:58:06.042Z,21.85
2023-01-04T08:59:39.045Z,16.63
2023-01-04T09:01:12.492Z,18.13
2023-01-04T09:02:45.688Z,20.85
2023-01-04T09:04:18.869Z,16.35
2023-01-04T09:05:57.321Z,18.23
2023-01-04T09:07:32.950Z,19.55
2023-01-04T09:09:06.267Z,17.38
2023-01-04T09:10:42.830Z,18.27
2023-01-04T09:12:15.949Z,14.85
2023-01-04T09:13:50.179Z,16.15
2023-01-04T09:15:28.407Z,15.45
2023-01-04T09:17:01.454Z,15.43
2023-01-04T09:18:35.633Z,15.82
2023-01-04T09:20:09.556Z,15.13
2023-01-04T09:21:42.633Z,14.70
2023-01-04T09:23:16.979Z,17.08
2023-01-04T09:24:49.998Z,15.35
2023-01-04T09:26:24.392Z,15.52
2023-01-04T09:27:58.657Z,14.18
2023-01-04T09:29:31.639Z,13.32
2023-01-04T09:31:08.321Z,15.27
2023-01-04T09:32:41.438Z,13.40
2023-01-04T09:34:16.587Z,13.93
2023-01-04T09:35:50.391Z,19.42
2023-01-04T09:37:23.444Z,15.63
2023-01-04T09:38:57.803Z,13.13
2023-01-04T09:40:35.610Z,10.98
2023-01-04T09:42:18.820Z,13.63
2023-01-04T09:43:53.542Z,14.23
2023-01-04T09:45:28.781Z,12.93
2023-01-04T09:47:06.081Z,11.82
2023-01-04T09:48:42.868Z,11.35
2023-01-04T09:50:22.387Z,11.07
2023-01-04T09:52:01.385Z,10.10
2023-01-04T09:53:39.668Z,10.95
2023-01-04T09:55:39.583Z,9.32
2023-01-04T09:57:21.113Z,15.10
2023-01-04T09:58:54.982Z,8.55
2023-01-04T10:00:31.712Z,8.05
2023-01-04T10:02:12.049Z,11.18
2023-01-04T10:03:54.531Z,7.45
2023-01-04T10:05:30.080Z,9.75
2023-01-04T10:07:05.344Z,8.57
2023-01-04T10:08:39.045Z,8.27
2023-01-04T10:12:05.438Z,8.02
2023-01-04T10:13:56.746Z,10.57
2023-01-04T10:15:36.353Z,6.97
2023-01-04T10:17:57.542Z,8.38
2023-01-04T10:21:41.435Z,7.53
2023-01-04T10:23:21.566Z,6.60
2023-01-04T10:25:07.860Z,5.60
2023-01-04T10:26:46.817Z,6.70
2023-01-04T10:28:35.808Z,6.72
2023-01-04T10:31:56.438Z,7.38
2023-01-04T10:33:36.492Z,6.25
2023-01-04T10:35:22.593Z,7.65
2023-01-04T10:36:59.032Z,8.60
2023-01-04T10:38:39.408Z,7.32
2023-01-04T10:40:16.276Z,6.07
2023-01-04T10:41:56.522Z,9.77
2023-01-04T10:44:09.668Z,7.28
2023-01-04T10:45:37.291Z,6.70
2023-01-04T10:47:16.191Z,6.00
2023-01-04T10:48:54.298Z,8.32
2023-01-04T10:50:35.344Z,6.25
2023-01-04T10:52:13.427Z,7.22
2023-01-04T10:53:50.129Z,7.30
2023-01-04T10:55:28.393Z,8.65
2023-01-04T10:57:09.023Z,7.47
2023-01-04T10:58:47.577Z,6.03
2023-01-04T11:00:25.329Z,6.20
2023-01-04T11:02:03.545Z,5.47
2023-01-04T11:03:43.213Z,6.20
2023-01-04T11:05:22.582Z,5.65
2023-01-04T11:07:00.447Z,5.13
2023-01-04T11:08:38.401Z,5.40
2023-01-04T11:10:16.286Z,5.90
2023-01-04T11:11:51.019Z,7.05
2023-01-04T11:13:26.190Z,5.97
2023-01-04T11:14:59.278Z,7.32
2023-01-04T11:16:32.902Z,5.32
2023-01-04T11:18:08.910Z,5.53
2023-01-04T11:19:42.558Z,6.05
2023-01-04T11:21:17.988Z,6.28
2023-01-04T11:22:56.507Z,5.00
2023-01-04T11:24:33.944Z,5.60
2023-01-04T11:26:10.851Z,6.15
2023-01-04T11:27:50.698Z,6.18
2023-01-04T11:29:34.945Z,4.65
2023-01-04T11:31:18.434Z,6.85
2023-01-04T11:32:58.246Z,5.22
2023-01-04T11:34:49.071Z,5.43
2023-01-04T11:36:39.818Z,7.63
2023-01-04T11:38:15.936Z,5.05
2023-01-04T11:39:48.949Z,6.97
2023-01-04T11:41:21.865Z,5.43
2023-01-04T11:43:13.137Z,3.28
2023-01-04T11:44:59.685Z,6.03
2023-01-04T11:46:33.883Z,6.05
2023-01-04T11:48:14.340Z,3.17
2023-01-04T11:49:48.191Z,6.10
2023-01-04T11:51:36.612Z,4.25
2023-01-04T11:53:31.674Z,5.32
2023-01-04T11:55:25.852Z,6.72
2023-01-04T11:57:11.040Z,3.47
2023-01-04T11:59:04.803Z,4.72
2023-01-04T12:00:39.512Z,5.43
2023-01-04T12:04:18.020Z,4.82
2023-01-04T12:05:51.177Z,4.38
2023-01-04T12:07:30.915Z,3.45
2023-01-04T12:09:04.054Z,8.38
2023-01-04T12:10:37.452Z,5.00
2023-01-04T12:13:49.126Z,3.75
2023-01-04T12:15:29.250Z,4.30
2023-01-04T12:17:11.489Z,2.70
2023-01-04T12:18:46.528Z,4.10
2023-01-04T12:20:22.256Z,2.70
2023-01-04T12:21:59.399Z,2.50
2023-01-04T12:23:34.019Z,3.45
2023-01-04T12:25:21.444Z,4.90
2023-01-04T12:26:55.043Z,2.85
2023-01-04T12:28:35.827Z,5.95
2023-01-04T12:30:29.599Z,3.30
2023-01-04T12:32:44.778Z,6.32
2023-01-04T12:34:48.497Z,4.72
2023-01-04T12:36:22.624Z,3.90
2023-01-04T12:37:55.627Z,3.40
2023-01-04T12:39:41.216Z,3.47
2023-01-04T12:41:14.237Z,4.97
2023-01-04T12:43:23.698Z,5.65
2023-01-04T12:45:23.947Z,3.33
2023-01-04T12:47:14.649Z,6.45
2023-01-04T12:49:04.906Z,5.93
2023-01-04T12:51:32.902Z,2.67
2023-01-04T12:55:01.638Z,3.28
2023-01-04T12:57:11.434Z,2.65
2023-01-04T13:01:21.717Z,3.75
2023-01-04T13:03:27.985Z,3.03
2023-01-04T13:05:53.436Z,3.38
2023-01-04T13:06:58.495Z,3.22
2023-01-04T13:08:33.308Z,2.90
2023-01-04T13:10:22.114Z,4.20
2023-01-04T13:12:12.970Z,2.70
2023-01-04T13:13:56.858Z,3.40
2023-01-04T13:17:20.251Z,4.15
2023-01-04T13:18:55.349Z,5.03
2023-01-04T13:20:30.695Z,4.80
2023-01-04T13:22:10.181Z,3.05
2023-01-04T13:23:50.431Z,6.63
2023-01-04T13:25:25.370Z,3.08
2023-01-04T13:26:59.496Z,1.38
2023-01-04T13:28:32.531Z,4.57
2023-01-04T13:30:06.373Z,4.43
2023-01-04T13:31:48.489Z,4.63
2023-01-04T13:33:27.356Z,4.00
2023-01-04T13:35:11.472Z,3.63
2023-01-04T13:36:55.443Z,4.38
2023-01-04T13:38:28.563Z,4.28
2023-01-04T13:40:14.443Z,2.97
2023-01-04T13:41:47.679Z,3.95
2023-01-04T13:43:39.884Z,3.53
2023-01-04T13:45:50.404Z,4.15
2023-01-04T13:47:25.843Z,2.75
2023-01-04T13:49:03.215Z,2.85
2023-01-04T13:50:40.073Z,4.57
2023-01-04T13:52:46.665Z,3.47
2023-01-04T13:54:21.302Z,5.10
2023-01-04T13:55:55.821Z,4.57
2023-01-04T13:57:28.890Z,2.72
2023-01-04T13:59:02.594Z,4.45
2023-01-04T14:00:43.418Z,3.67
2023-01-04T14:02:19.246Z,4.28
2023-01-04T14:03:55.720Z,4.00
2023-01-04T14:05:30.383Z,5.18
2023-01-04T14:07:03.619Z,2.85
2023-01-04T14:08:41.683Z,2.80
2023-01-04T14:10:19.762Z,4.63
2023-01-04T14:12:09.961Z,4.47
2023-01-04T14:13:48.030Z,6.38
2023-01-04T14:15:24.898Z,4.43
2023-01-04T14:17:28.618Z,5.43
2023-01-04T14:19:34.838Z,2.88
2023-01-04T14:21:17.086Z,5.20
2023-01-04T14:22:54.568Z,4.05
2023-01-04T14:26:34.005Z,3.00
2023-01-04T14:28:29.327Z,1.73
2023-01-04T14:30:14.558Z,2.47
2023-01-04T14:31:47.607Z,2.38
2023-01-04T14:33:23.209Z,2.35
2023-01-04T14:34:56.297Z,1.55
2023-01-04T14:36:32.682Z,3.58
2023-01-04T14:38:11.896Z,6.20
2023-01-04T14:39:45.054Z,2.97
2023-01-04T14:41:22.112Z,4.30
2023-01-04T14:42:55.399Z,3.03
2023-01-04T14:46:04.203Z,2.67
2023-01-04T14:49:10.115Z,3.78
2023-01-04T14:50:43.192Z,2.88
2023-01-04T14:52:24.108Z,4.45
2023-01-04T14:53:59.937Z,5.18
2023-01-04T14:55:32.973Z,3.17
2023-01-04T14:57:06.155Z,3.38
2023-01-04T14:58:39.099Z,5.35
2023-01-04T15:00:19.472Z,3.30
2023-01-04T15:01:53.618Z,2.55
2023-01-04T15:03:26.922Z,2.60
2023-01-04T15:06:33.506Z,3.83
2023-01-04T15:08:11.003Z,2.67
2023-01-04T15:09:43.953Z,6.22
2023-01-04T15:11:17.884Z,3.72
2023-01-04T15:12:51.047Z,2.75
2023-01-04T15:14:24.619Z,3.47
2023-01-04T15:15:57.676Z,1.58
2023-01-04T15:17:31.013Z,3.10
2023-01-04T15:19:04.120Z,3.13
2023-01-04T15:20:40.281Z,3.92
2023-01-04T15:22:13.303Z,2.78
2023-01-04T15:23:48.285Z,3.75
2023-01-04T15:25:21.369Z,2.80
2023-01-04T15:26:54.343Z,3.33
2023-01-04T15:28:27.263Z,3.00
2023-01-04T15:30:00.256Z,2.85
2023-01-04T15:31:38.874Z,4.68
2023-01-04T15:33:12.562Z,3.80
2023-01-04T15:34:47.091Z,2.78
2023-01-04T15:36:23.951Z,6.15
2023-01-04T15:37:57.170Z,5.97
2023-01-04T15:39:31.790Z,2.20
2023-01-04T15:41:06.782Z,4.05
2023-01-04T15:42:57.595Z,3.42
2023-01-04T15:44:30.571Z,4.95
2023-01-04T15:46:08.287Z,12.55
2023-01-04T15:47:41.349Z,7.05
2023-01-04T15:49:17.568Z,9.15
2023-01-04T15:50:51.220Z,6.20
2023-01-04T15:52:24.134Z,6.03
2023-01-04T15:53:57.396Z,5.13
2023-01-04T15:55:36.263Z,4.93
2023-01-04T15:57:09.894Z,6.13
2023-01-04T15:58:42.864Z,5.53
2023-01-04T16:00:16.943Z,6.05
2023-01-04T16:01:49.997Z,4.97
2023-01-04T16:03:23.054Z,8.57
2023-01-04T16:04:56.073Z,4.68
2023-01-04T16:06:29.060Z,6.03
2023-01-04T16:08:02.065Z,9.13
2023-01-04T16:09:36.852Z,6.45
2023-01-04T16:11:13.004Z,6.40
2023-01-04T16:12:46.773Z,8.15
2023-01-04T16:14:22.997Z,8.90
2023-01-04T16:15:55.924Z,7.10
2023-01-04T16:17:29.119Z,6.07
2023-01-04T16:19:02.380Z,3.13
2023-01-04T16:20:35.420Z,6.15
2023-01-04T16:22:08.594Z,8.48
2023-01-04T16:23:41.559Z,4.97
2023-01-04T16:25:14.897Z,5.75
2023-01-04T16:28:21.944Z,2.58
2023-01-04T16:29:54.989Z,6.40
2023-01-04T16:31:28.054Z,4.00
2023-01-04T16:33:01.096Z,2.67
2023-01-04T16:34:34.081Z,3.92
2023-01-04T16:36:09.601Z,7.55
2023-01-04T16:37:43.060Z,4.82
2023-01-04T16:39:17.032Z,4.75
2023-01-04T16:41:00.826Z,5.38
2023-01-04T16:42:35.417Z,7.68
2023-01-04T16:44:08.355Z,5.30
2023-01-04T16:45:41.260Z,7.70
2023-01-04T16:47:14.179Z,4.85
2023-01-04T16:48:48.473Z,4.32
2023-01-04T16:50:21.543Z,5.55
2023-01-04T16:51:54.634Z,5.53
2023-01-04T16:53:27.535Z,5.22
2023-01-04T16:55:00.505Z,5.57
2023-01-04T16:56:34.056Z,6.72
2023-01-04T16:58:08.291Z,6.88
2023-01-04T16:59:41.448Z,6.55
2023-01-04T17:01:16.144Z,4.10
2023-01-04T17:02:49.290Z,7.10
2023-01-04T17:04:22.489Z,6.05
2023-01-04T17:05:55.504Z,5.88
2023-01-04T17:07:32.698Z,7.55
2023-01-04T17:09:08.188Z,6.70
2023-01-04T17:10:41.217Z,5.97
2023-01-04T17:14:10.974Z,6.72
2023-01-04T17:15:44.686Z,5.53
2023-01-04T17:17:17.963Z,5.50
2023-01-04T17:18:51.716Z,4.43
2023-01-04T17:20:24.763Z,6.18
2023-01-04T17:21:57.674Z,5.30
2023-01-04T17:23:32.567Z,5.10
2023-01-04T17:25:06.242Z,6.30
2023-01-04T17:26:40.816Z,10.35
2023-01-04T17:28:13.865Z,15.82
2023-01-04T17:29:51.134Z,16.13
2023-01-04T17:31:26.077Z,12.05
2023-01-04T17:32:59.191Z,7.97
2023-01-04T17:34:32.073Z,9.90
2023-01-04T17:36:05.878Z,5.10
2023-01-04T17:37:38.799Z,5.18
2023-01-04T17:39:12.760Z,4.35
2023-01-04T17:40:45.684Z,7.95
2023-01-04T17:42:18.599Z,6.50
2023-01-04T17:43:53.646Z,9.38
2023-01-04T17:45:27.919Z,5.95
2023-01-04T17:47:00.850Z,6.05
2023-01-04T17:48:34.408Z,5.40
2023-01-04T17:50:07.978Z,4.95
2023-01-04T17:51:41.117Z,5.05
2023-01-04T17:53:14.029Z,4.90
2023-01-04T17:54:47.060Z,7.43
2023-01-04T17:56:20.760Z,5.70
2023-01-04T17:57:53.696Z,4.28
2023-01-04T17:59:26.760Z,6.70
2023-01-04T18:01:01.349Z,6.60
2023-01-04T18:02:35.201Z,6.90
2023-01-04T18:04:09.036Z,7.28
2023-01-04T18:05:52.080Z,4.10
2023-01-04T18:07:33.545Z,5.85
2023-01-04T18:09:08.185Z,8.05
2023-01-04T18:11:06.325Z,8.57
2023-01-04T18:12:36.885Z,11.85
2023-01-04T18:14:14.156Z,8.40
2023-01-04T18:16:10.107Z,6.95
2023-01-04T18:17:41.837Z,7.82
2023-01-04T18:19:16.687Z,7.22
2023-01-04T18:20:50.245Z,8.18
2023-01-04T18:22:24.553Z,7.43
2023-01-04T18:25:51.126Z,7.40
2023-01-04T18:27:25.992Z,8.48
2023-01-04T18:28:59.842Z,5.82
2023-01-04T18:30:32.783Z,5.85
2023-01-04T18:32:06.461Z,9.48
2023-01-04T18:33:41.123Z,7.25
2023-01-04T18:35:14.289Z,7.15
2023-01-04T18:36:47.890Z,6.93
2023-01-04T18:38:20.832Z,9.25
2023-01-04T18:39:53.779Z,7.22
2023-01-04T18:41:27.920Z,6.57
2023-01-04T18:43:00.798Z,7.05
2023-01-04T18:44:35.206Z,5.30
2023-01-04T18:46:09.997Z,4.72
2023-01-04T18:47:42.955Z,4.15
2023-01-04T18:49:17.464Z,4.53
2023-01-04T18:50:50.796Z,4.88
2023-01-04T18:53:56.551Z,5.28
2023-01-04T18:55:29.469Z,4.93
2023-01-04T18:57:02.293Z,5.65
2023-01-04T18:58:36.097Z,6.03
2023-01-04T19:00:11.308Z,4.55
2023-01-04T19:01:45.111Z,5.90
2023-01-04T19:03:18.786Z,5.07
2023-01-04T19:04:53.215Z,5.38
2023-01-04T19:06:26.079Z,3.58
2023-01-04T19:07:59.073Z,2.90
2023-01-04T19:09:32.094Z,4.07
2023-01-04T19:11:05.320Z,4.13
2023-01-04T19:12:38.856Z,3.47
2023-01-04T19:14:11.988Z,3.22
2023-01-04T19:15:47.764Z,5.43
2023-01-04T19:17:26.712Z,7.43
2023-01-04T19:19:00.363Z,7.65
2023-01-04T19:20:34.753Z,2.88
2023-01-04T19:22:07.794Z,2.13
2023-01-04T19:23:40.829Z,4.85
2023-01-04T19:25:13.905Z,3.72
2023-01-04T19:26:46.980Z,7.13
2023-01-04T19:28:19.985Z,3.45
2023-01-04T19:29:53.366Z,2.85
2023-01-04T19:32:59.121Z,3.03
2023-01-04T19:34:32.091Z,2.78
2023-01-04T19:36:08.746Z,2.20
2023-01-04T19:37:41.692Z,3.15
2023-01-04T19:39:14.641Z,3.85
2023-01-04T19:40:55.983Z,4.25
2023-01-04T19:42:28.915Z,3.55
2023-01-04T19:44:02.959Z,4.05
2023-01-04T19:45:38.291Z,2.65
2023-01-04T19:47:11.298Z,3.25
2023-01-04T19:48:44.592Z,2.38
2023-01-04T19:50:18.091Z,3.70
2023-01-04T19:51:52.349Z,4.03
2023-01-04T19:53:25.399Z,2.53
2023-01-04T19:54:58.281Z,3.25
2023-01-04T19:56:31.202Z,1.95
2023-01-04T19:58:04.125Z,2.67
2023-01-04T19:59:37.150Z,1.77
2023-01-04T20:01:14.970Z,4.28
2023-01-04T20:02:48.106Z,3.28
2023-01-04T20:04:21.357Z,2.63
2023-01-04T20:05:54.825Z,3.10
2023-01-04T20:07:29.124Z,2.60
2023-01-04T20:09:02.291Z,2.10
2023-01-04T20:10:35.673Z,1.48
2023-01-04T20:12:09.412Z,3.28
2023-01-04T20:13:42.614Z,2.13
2023-01-04T20:15:15.635Z,1.95
2023-01-04T20:16:48.649Z,3.28
2023-01-04T20:18:23.731Z,1.65
2023-01-04T20:19:56.701Z,2.13
2023-01-04T20:21:29.642Z,1.88
2023-01-04T20:23:03.953Z,2.10
2023-01-04T20:24:36.866Z,3.42
2023-01-04T20:26:13.306Z,1.65
2023-01-04T20:27:46.349Z,2.65
2023-01-04T20:29:19.285Z,1.80
2023-01-04T20:31:02.920Z,1.33
2023-01-04T20:32:37.107Z,3.90
2023-01-04T20:34:10.122Z,2.10
2023-01-04T20:35:45.619Z,2.75
2023-01-04T20:37:18.572Z,2.03
2023-01-04T20:38:52.893Z,2.05
2023-01-04T20:40:26.247Z,6.63
2023-01-04T20:43:50.034Z,4.22
2023-01-04T20:45:21.976Z,1.75
2023-01-04T20:46:54.908Z,1.95
2023-01-04T20:48:27.999Z,1.83
2023-01-04T20:50:01.345Z,3.83
2023-01-04T20:53:07.510Z,2.53
2023-01-04T20:56:17.080Z,0.95
2023-01-04T20:57:50.060Z,2.60
2023-01-04T20:59:23.036Z,3.83
2023-01-04T21:00:55.974Z,2.95
2023-01-04T21:02:31.075Z,2.40
2023-01-04T21:04:07.226Z,4.03
2023-01-04T21:05:42.699Z,5.10
2023-01-04T21:07:15.688Z,1.52
2023-01-04T21:08:50.295Z,5.20
2023-01-04T21:10:24.640Z,4.72
2023-01-04T21:12:00.662Z,2.25
2023-01-04T21:13:36.862Z,2.78
2023-01-04T21:15:10.705Z,2.58
2023-01-04T21:16:43.577Z,1.88
2023-01-04T21:18:16.549Z,3.30
2023-01-04T21:19:49.485Z,3.20
2023-01-04T21:21:37.739Z,2.85
2023-01-04T21:23:14.097Z,3.47
2023-01-04T21:24:47.243Z,6.75
2023-01-04T21:26:21.654Z,4.20
2023-01-04T21:27:54.608Z,3.72
2023-01-04T21:29:28.530Z,2.67
2023-01-04T21:31:01.740Z,2.42
2023-01-04T21:32:34.842Z,2.92
2023-01-04T21:34:13.532Z,2.80
2023-01-04T21:35:48.254Z,1.13
2023-01-04T21:37:21.288Z,1.73
2023-01-04T21:38:56.289Z,1.70
2023-01-04T21:40:29.608Z,1.52
2023-01-04T21:43:37.186Z,1.27
2023-01-04T21:46:43.272Z,1.98
2023-01-04T21:48:16.478Z,1.48
2023-01-04T21:49:50.605Z,2.00
2023-01-04T21:51:26.064Z,2.08
2023-01-04T21:52:59.478Z,2.38
2023-01-04T21:56:07.755Z,2.28
2023-01-04T21:57:42.272Z,1.40
2023-01-04T21:59:15.506Z,1.92
2023-01-04T22:00:48.409Z,3.25
2023-01-04T22:02:21.631Z,2.40
2023-01-04T22:05:27.489Z,3.85
2023-01-04T22:07:00.624Z,3.40
2023-01-04T22:08:33.885Z,1.70
2023-01-04T22:10:07.215Z,2.20
2023-01-04T22:13:15.118Z,1.55
2023-01-04T22:14:48.027Z,2.53
2023-01-04T22:16:21.047Z,2.33
2023-01-04T22:17:53.969Z,1.63
2023-01-04T22:19:26.918Z,1.13